Terminal Aerodrome Forecast
Issued by NWS Bismarck, ND

Home | Current Version | Previous Version | Text Only | Print | Product List | Glossary Off
Versions: 1 2 3 4 5 6 7 8 9 10 11 12 13 14 15 16 17 18 19 20 21

000
FTUS43 KBIS 261600 AAA
TAFISN
TAF AMD
KISN 261602Z 2616/2712 32007KT P6SM OVC018
     FM261800 32008KT P6SM BKN025
     FM262200 33007KT P6SM BKN050
     FM270300 35007KT 4SM -RA BR BKN035 OVC050
     FM270600 34007KT 2SM -RA BR BKN020 OVC035=

USA.gov is the U.S. government's official web portal to all federal, state and local government web resources and services.